Home > Products > Valid Products > MTR

000
SAUS44 KSHV 300958
MTRAQV
METAR KAQV 300956Z AUTO 00000KT 5SM BR CLR 20/19 A3000 RMK AO2
SLP157 T02000189 $





000
SAUS44 KSHV 300758
MTRAQV
METAR KAQV 300756Z AUTO 00000KT 6SM BR CLR 20/19 A3002 RMK AO2
SLP161 T02000194 $





000
SAUS44 KSHV 300657
MTRAQV
METAR KAQV 300656Z AUTO 00000KT 7SM CLR 20/19 A3002 RMK AO2 SLP162
T02000194 $





000
SAUS44 KSHV 300558
MTRAQV
METAR KAQV 300556Z AUTO 00000KT 9SM CLR 20/19 A3003 RMK AO2 SLP166
T02000194 10294 20200 403220194 58011 $





000
SAUS44 KSHV 300555
MTRBKB
METAR KBKB 300554Z AUTO 00000KT 6SM BR CLR 22/20 A3002 RMK AO2
SLP192 T02170200 10300 20217 403220194 58008 $





000
SAUS44 KSHV 300459
MTRAQV
METAR KAQV 300456Z AUTO 00000KT 8SM CLR 21/19 A3007 RMK AO2 SLP178
T02060194 $





000
SAUS44 KSHV 300057
MTRAQV
METAR KAQV 300056Z AUTO 00000KT 10SM CLR 26/22 A3001 RMK AO2 SLP159
T02560217 $





000
SAUS44 KSHV 292257
MTRAQV
METAR KAQV 292256Z AUTO VRB05KT 10SM CLR 31/18 A3001 RMK AO2 SLP158
T03060178 $





000
SAUS44 KSHV 291855
MTRBKB
METAR KBKB 291854Z AUTO VRB03KT 10SM FEW046 31/19 A3007 RMK AO2
SLP208 T03110189 $





000
SAUS44 KSHV 291758
MTRAQV
METAR KAQV 291756Z AUTO 10SM SCT041 BKN055 31/21 A3011 RMK AO2
SLP192 T03110206 10311 20206 58007 $





000
SAUS44 KSHV 291755
MTRBKB
METAR KBKB 291754Z AUTO VRB04KT 10SM FEW041 31/20 A3009 RMK AO2
SLP215 T03110200 10311 20200 58010 $





000
SAUS44 KSHV 291558
MTRAQV
METAR KAQV 291556Z AUTO 19003KT 10SM CLR 29/21 A3013 RMK AO2 SLP198
T02890206 $





000
SAUS44 KSHV 291557
MTRBKB
METAR KBKB 291554Z AUTO VRB04KT 10SM CLR 29/22 A3011 RMK AO2 SLP223
T02890217 $





000
SAUS44 KSHV 291355
MTRBKB
METAR KBKB 291354Z AUTO 00000KT 10SM CLR 24/22 A3012 RMK AO2 SLP225
T02390217 $





000
SAUS44 KSHV 291258
MTRAQV
METAR KAQV 291256Z AUTO 00000KT 10SM CLR 22/22 A3011 RMK AO2 SLP193
T02220217 $





000
SAUS44 KSHV 291158
MTRBKB
METAR KBKB 291154Z AUTO 00000KT 1 1/4SM BR OVC003 20/18 A3009 RMK
AO2 SLP216 T02000183 10217 20194 50018 $





000
SAUS44 KSHV 291157
MTRAQV
METAR KAQV 291156Z AUTO 00000KT 4SM BR CLR 21/20 A3009 RMK AO2
SLP188 T02060200 10211 20194 53021 $





000
SAUS44 KSHV 291150
MTRBKB
SPECI KBKB 291149Z AUTO 00000KT 4SM BR OVC004 19/18 A3009 RMK AO2 $





000
SAUS44 KSHV 291058
MTRAQV
METAR KAQV 291056Z AUTO 00000KT 6SM BR CLR 20/19 A3007 RMK AO2
SLP181 T02000194 $





000
SAUS44 KSHV 291044 COR
MTRBKB
SPECI KBKB 291042Z AUTO 00000KT 6SM BR BKN007 20/18 A3005 RMK AO2
T02000183 $





000
SAUS44 KSHV 290657
MTRAQV
METAR KAQV 290656Z AUTO 00000KT 4SM BR CLR 20/19 A3002 RMK AO2
SLP162 T02000194 $





000
SAUS44 KSHV 290655
MTRBKB
METAR KBKB 290654Z AUTO 00000KT 6SM BR CLR 21/19 A3001 RMK AO2
SLP186 T02110194 $





000
SAUS44 KSHV 290558
MTRAQV
METAR KAQV 290556Z AUTO 00000KT 7SM CLR 21/20 A3004 RMK AO2 SLP169
T02060200 10278 20206 403170178 51004 $





000
SAUS44 KSHV 290459
MTRAQV
METAR KAQV 290456Z AUTO 00000KT 6SM BR CLR 21/20 A3004 RMK AO2
SLP169 T02060200 $





000
SAUS44 KSHV 290258
MTRAQV
METAR KAQV 290256Z AUTO 00000KT 10SM CLR 22/21 A3002 RMK AO2 SLP164
T02220211 53013 $





000
SAUS44 KSHV 290155
MTRBKB
METAR KBKB 290154Z AUTO 00000KT 10SM CLR 24/22 A3000 RMK AO2 SLP184
T02390217 $





000
SAUS44 KSHV 282357
MTRAQV
METAR KAQV 282356Z AUTO 00000KT 10SM CLR 28/20 A2999 RMK AO2 SLP152
T02780200 10317 20278 53004 $





000
SAUS44 KSHV 282355
MTRBKB
METAR KBKB 282354Z AUTO 00000KT 10SM CLR 28/21 A2997 RMK AO2 SLP175
60000 T02830211 10306 20272 53002 $





000
SAUS44 KSHV 282203
MTRBKB
SPECI KBKB 282201Z AUTO 18004KT 10SM TS BKN050 29/22 A2996 RMK AO2
TSB2155 T02940217 $





000
SAUS44 KSHV 281855
MTRBKB
METAR KBKB 281854Z AUTO VRB04KT 10SM FEW029 BKN047 BKN055 29/21
A2997 RMK AO2 SLP175 T02890211 $





000
SAUS44 KSHV 281555
MTRBKB
METAR KBKB 281554Z AUTO 20003KT 10SM CLR 27/19 A2996 RMK AO2 SLP173
T02670189 $





000
SAUS44 KSHV 280217
MTRBKB
SPECI KBKB 280216Z AUTO VRB04G16KT 10SM -RA SCT110 19/17 A2984 RMK
AO2 TSE0158 P0003 T01890172 $





000
SAUS44 KSHV 280157
MTRBKB
METAR KBKB 280154Z AUTO 08007KT 6SM TSRA BR FEW080 BKN095 OVC110
19/18 A2986 RMK AO2 TSE0055B02E17B43 PRESFR SLP138 P0021 T01890178 $





000
SAUS44 KSHV 280151
MTRBKB
SPECI KBKB 280149Z AUTO VRB05KT 6SM TSRA BR FEW080 BKN095 OVC110
19/18 A2988 RMK AO2 TSE0055B02E17B43 PRESFR P0019 $





000
SAUS44 KSHV 280124
MTRBKB
SPECI KBKB 280123Z AUTO VRB04KT 4SM +RA BR FEW055 BKN085 OVC110
19/18 A2992 RMK AO2 TSE0055B02E17 P0010 T01940178 $





000
SAUS44 KSHV 280110
MTRBKB
SPECI KBKB 280108Z AUTO VRB03KT 5SM TSRA BR FEW070 BKN095 OVC120
19/18 A2993 RMK AO2 TSE0055B02 P0004 T01940183 $





000
SAUS44 KSHV 280057
MTRAQV
METAR KAQV 280056Z AUTO VRB03KT 5SM TSRA BR FEW055 BKN095 OVC110
19/18 A2990 RMK AO2 TSB2359E44B46 SLP121 P0023 T01890183 $





000
SAUS44 KSHV 280056
MTRBKB
METAR KBKB 280054Z AUTO 06004KT 7SM TSRA BKN095 OVC120 19/18 A2991
RMK AO2 TSB24 SLP153 P0016 T01940183 $





000
SAUS44 KSHV 280010
MTRAQV
SPECI KAQV 280009Z AUTO VRB03KT 5SM TSRA BR FEW007 BKN080 OVC110
19/19 A2990 RMK AO2 TSB2359 P0004 T01940189 $





000
SAUS44 KSHV 272357
MTRAQV
METAR KAQV 272356Z AUTO 08004KT 5SM TSRA BR FEW075 BKN090 OVC110
19/19 A2989 RMK AO2 TSB20 SLP120 P0011 60218 T01940189 10289 20189
51010 $





000
SAUS44 KSHV 272356
MTRBKB
METAR KBKB 272354Z AUTO 00000KT 10SM -TSRA OVC100 20/18 A2990 RMK
AO2 SLP151 P0018 60104 T02000183 10300 20194 51024 $





000
SAUS44 KSHV 272324
MTRBKB
SPECI KBKB 272323Z AUTO VRB04KT 4SM TSRA BR SCT007 BKN047 OVC070
19/18 A2988 RMK AO2 P0014 T01940183 $





000
SAUS44 KSHV 272253
MTRBKB
SPECI KBKB 272251Z AUTO VRB03KT 1/2SM +TSRA FG FEW009 OVC015 20/18
A2988 RMK AO2 RAB15E25B34 TSB42B44 P0076 $





000
SAUS44 KSHV 272246
MTRAQV
SPECI KAQV 272245Z AUTO 07004KT 1 1/2SM +TSRA BR OVC032 19/18 A2990
RMK AO2 P0091 T01890183 $





000
SAUS44 KSHV 272237
MTRBKB
SPECI KBKB 272236Z AUTO VRB04KT 1 3/4SM -RA BR BKN009 OVC015 21/19
A2992 RMK AO2 RAB15E25B34 PRESRR P0018 T02110189 $





000
SAUS44 KSHV 272229
MTRBKB
SPECI KBKB 272228Z AUTO VRB04KT 10SM SCT007 OVC015 21/19 A2988 RMK
AO2 RAB15E25 P0000 T02110189 $





000
SAUS44 KSHV 272114
MTRBKB
SPECI KBKB 272111Z AUTO 00000KT 5SM -RA BR SCT029 BKN039 OVC085
24/22 A2984 RMK AO2 TSB2056E11 P0003 T02440222 $





000
SAUS44 KSHV 272038
MTRAQV
SPECI KAQV 272037Z AUTO VRB05KT 1 1/2SM +TSRA BR SCT008 SCT019
OVC036 21/19 A2988 RMK AO2 RAB07E19B36 TSB14 P0020 T02060189 $





000
SAUS44 KSHV 272022
MTRAQV
SPECI KAQV 272020Z AUTO 33007G14KT 270V010 10SM TS FEW012 BKN033
OVC049 21/19 A2985 RMK AO2 RAB07E19 TSB14 P0000 T02110189 $





000
SAUS44 KSHV 271655
MTRBKB
METAR KBKB 271654Z AUTO VRB03KT 10SM CLR 26/21 A2984 RMK AO2 SLP129
T02610206 $





000
SAUS44 KSHV 271448
MTRSHV
SPECI KSHV 271442Z 30008KT 10SM SCT013 BKN090 OVC180 22/21 A2988 RMK AO2

     T02170206












000
SAUS44 KSHV 271448
MTRSHV
SPECI KSHV 271442Z 30008KT 10SM SCT013 BKN090 OVC180 22/21 A2988 RMK AO2

     T02170206










000
SAUS44 KSHV 271448
MTRSHV
SPECI KSHV 271442Z 30008KT 10SM SCT013 BKN090 OVC180 22/21 A2988 RMK AO2

     T02170206









000
SAUS44 KSHV 271448
MTRSHV
SPECI KSHV 271442Z 30008KT 10SM SCT013 BKN090 OVC180 22/21 A2988 RMK AO2

     T02170206














000
SAUS44 KSHV 271422
MTRAQV
SPECI KAQV 271419Z AUTO 17006KT 10SM -RA FEW012 SCT019 22/21 A2987
RMK AO2 TSB1358E13 P0001 T02170206 $





000
SAUS44 KSHV 271321
MTRBKB
SPECI KBKB 271320Z AUTO VRB05KT 2SM -RA BR SCT009 BKN048 OVC110
24/22 A2990 RMK AO2 TSB1257E15 P0006 T02390222 $





000
SAUS44 KSHV 271254
MTRAQV
SPECI KAQV 271252Z AUTO VRB05KT 6SM -TSRA BR BKN008 BKN080 23/22
A2987 RMK AO2 RAB46 TSB22E37B46 CIG 005V016 PRESFR P0000 $





000
SAUS44 KSHV 271244
MTRAQV
SPECI KAQV 271243Z AUTO 17007KT 6SM BR BKN008 BKN016 23/22 A2989 RMK
AO2 TSB22E37 T02330222 $





000
SAUS44 KSHV 271057
MTRAQV
METAR KAQV 271056Z AUTO 16005KT 5SM -RA BR BKN007 OVC012 23/22 A2985
RMK AO2 RAB0957 SLP104 P0003 T02280222 $





    US Dept of Commerce
    National Oceanic and Atmospheric Administration
    National Weather Service
    1325 East West Highway
    Silver Spring, MD 20910
    Page Author: NWS Internet Services Team
Disclaimer
Information Quality
Credits
Glossary
Privacy Policy
Freedom of Information Act (FOIA)
About Us
Career Opportunities